Alamo, Nevada
Current Conditions -  °F | °C
As of 12:58 AM on Monday 20 Oct 2014 (Local Time) from KINS Reporting Station
Clear Clear  
Wind Chill: 58°   Ceiling: Unl
Heat Index: 58°   Visibility: 10mi
Dew Point: 30°   Wind: 2mph
Humidity: 34%   Direction: 220°SW
Pressure: 29.95"   Gusts: NA
Location:  37.36°N, 115.16°W
Report Text: KINS 200758Z AUTO 22002KT 10SM CLR 15/M01 A2995 RMK AO2 SLP104 T01461010 402910097
Loading
Personal Weather Stations






























Interactive Weather Map
Tropical Storm Tracking
New forecast layout! Learn more

10-Day Weather Forecast

Advertisements
Track Severe Weather on mobile